Time;durP1;ratioP1;P1;durP2;ratioP2;P2;SDS_P1;SDS_P2;PMS_P1;PMS_P2;Temp;Humidity;BMP_temperature;BMP_pressure;BME280_temperature;BME280_humidity;BME280_pressure;Samples;Min_cycle;Max_cycle;Signal;HPM_P1;HPM_P2
2022/09/29 00:01:48;;;;;;;3.80;2.10;;;7.30;99.90;;;;;;5076485;28;20037;-56
2022/09/29 00:04:14;;;;;;;2.15;1.85;;;7.30;99.90;;;;;;5076534;28;20044;-56
2022/09/29 00:06:40;;;;;;;3.60;2.40;;;7.30;99.90;;;;;;5076678;28;20090;-56
2022/09/29 00:09:05;;;;;;;2.85;1.95;;;7.20;99.90;;;;;;5076521;28;20036;-54
2022/09/29 00:11:31;;;;;;;3.13;2.08;;;7.30;99.90;;;;;;5076441;28;20040;-55
2022/09/29 00:13:56;;;;;;;2.22;1.88;;;7.30;99.90;;;;;;5076470;28;20441;-54
2022/09/29 00:16:22;;;;;;;2.35;1.92;;;7.30;99.90;;;;;;5076515;28;20501;-55
2022/09/29 00:18:48;;;;;;;1.70;1.60;;;7.30;99.90;;;;;;5075043;28;20476;-55
2022/09/29 00:21:18;;;;;;;3.78;2.00;;;7.20;99.90;;;;;;5076240;28;20094;-55
2022/09/29 00:23:45;;;;;;;3.08;1.95;;;7.30;99.90;;;;;;5076194;28;20541;-56
2022/09/29 00:26:13;;;;;;;5.15;1.88;;;7.30;99.90;;;;;;5076322;28;20040;-56
2022/09/29 00:28:41;;;;;;;9.07;2.50;;;7.30;99.90;;;;;;5076260;28;20436;-55
2022/09/29 00:31:11;;;;;;;2.53;2.13;;;7.10;99.90;;;;;;5076253;28;20043;-56
2022/09/29 00:33:37;;;;;;;2.22;2.00;;;7.10;99.90;;;;;;5076160;28;20387;-53
2022/09/29 00:36:09;;;;;;;3.60;2.45;;;7.00;99.90;;;;;;5076101;28;20190;-53
2022/09/29 00:38:35;;;;;;;4.32;2.20;;;7.00;99.90;;;;;;5075891;28;20055;-55
2022/09/29 00:41:02;;;;;;;2.10;1.90;;;6.80;99.90;;;;;;5074570;28;20488;-55
2022/09/29 00:43:48;;;;;;;1.88;1.77;;;6.90;99.90;;;;;;5075891;28;20037;-55
2022/09/29 00:46:18;;;;;;;1.73;1.63;;;7.00;99.90;;;;;;5075958;28;20119;-56
2022/09/29 00:48:45;;;;;;;2.47;2.28;;;6.90;99.90;;;;;;5075832;28;20387;-56
2022/09/29 00:51:11;;;;;;;2.13;1.98;;;6.90;99.90;;;;;;5074757;28;20048;-55
2022/09/29 00:53:37;;;;;;;2.67;2.25;;;6.90;99.90;;;;;;5075992;28;20044;-55
2022/09/29 00:56:06;;;;;;;4.35;2.42;;;6.90;99.90;;;;;;5074033;28;20048;-56
2022/09/29 00:58:43;;;;;;;2.25;2.05;;;6.90;99.90;;;;;;5075686;28;20036;-55
2022/09/29 01:01:11;;;;;;;2.88;2.58;;;6.90;99.90;;;;;;5075564;28;20058;-56
2022/09/29 01:03:42;;;;;;;7.88;3.45;;;6.80;99.90;;;;;;5075473;28;20086;-54
2022/09/29 01:06:14;;;;;;;5.95;3.28;;;6.80;99.90;;;;;;5075583;28;20115;-55
2022/09/29 01:09:01;;;;;;;3.63;3.33;;;6.80;99.90;;;;;;5075522;28;20379;-54
2022/09/29 01:11:28;;;;;;;7.13;3.10;;;6.80;99.90;;;;;;5033341;28;20049;-56
2022/09/29 01:14:00;;;;;;;7.80;3.10;;;6.80;99.90;;;;;;5033024;28;20053;-55
2022/09/29 01:16:26;;;;;;;4.05;3.38;;;6.80;99.90;;;;;;5033770;28;20057;-55
2022/09/29 01:18:52;;;;;;;7.38;3.88;;;6.80;99.90;;;;;;5033111;28;20089;-55
2022/09/29 01:21:59;;;;;;;4.47;3.10;;;6.80;99.90;;;;;;5033059;28;20103;-55
2022/09/29 01:24:46;;;;;;;4.28;3.63;;;6.80;99.90;;;;;;5033078;28;20144;-55
2022/09/29 01:27:19;;;;;;;4.40;3.58;;;6.70;99.90;;;;;;5033005;28;20065;-55
2022/09/29 01:30:05;;;;;;;6.03;3.50;;;6.80;99.90;;;;;;5033075;28;20411;-56
2022/09/29 01:32:37;;;;;;;3.95;3.50;;;6.80;99.90;;;;;;5032697;28;20069;-56
2022/09/29 01:35:33;;;;;;;12.98;3.70;;;6.90;99.90;;;;;;5032894;28;20441;-56
2022/09/29 01:38:24;;;;;;;5.88;2.90;;;6.80;99.90;;;;;;5032845;28;20120;-56
2022/09/29 01:41:06;;;;;;;3.65;3.20;;;6.90;99.90;;;;;;5032817;28;20045;-56
2022/09/29 01:43:41;;;;;;;4.07;3.50;;;6.70;99.90;;;;;;5032582;28;20051;-55
2022/09/29 01:46:35;;;;;;;3.65;3.08;;;6.80;99.90;;;;;;5032927;28;20045;-57
2022/09/29 01:49:02;;;;;;;3.20;2.90;;;6.80;99.90;;;;;;5062176;28;20550;-57
2022/09/29 01:51:45;;;;;;;2.85;2.65;;;6.80;99.90;;;;;;5074607;28;20384;-56
2022/09/29 01:54:16;;;;;;;6.70;2.80;;;6.80;99.90;;;;;;5074687;28;20052;-56
2022/09/29 01:56:52;;;;;;;6.57;3.28;;;6.90;99.90;;;;;;5074447;28;20056;-55
2022/09/29 01:59:25;;;;;;;4.03;2.47;;;6.70;99.90;;;;;;5074428;28;20487;-55
2022/09/29 02:01:56;;;;;;;2.40;2.20;;;6.70;99.90;;;;;;5074397;28;20418;-56
2022/09/29 02:04:31;;;;;;;5.80;2.50;;;6.80;99.90;;;;;;5074334;28;20044;-56
2022/09/29 02:07:19;;;;;;;5.40;2.55;;;6.80;99.90;;;;;;5073922;28;20153;-55
2022/09/29 02:09:51;;;;;;;3.80;2.65;;;6.80;99.90;;;;;;5073365;28;20056;-55
2022/09/29 02:12:23;;;;;;;13.40;3.53;;;6.70;99.90;;;;;;5074228;28;20181;-56
2022/09/29 02:14:51;;;;;;;4.28;2.75;;;6.60;99.90;;;;;;5074242;28;20085;-55
2022/09/29 02:17:24;;;;;;;5.15;2.92;;;6.70;99.90;;;;;;5074529;28;20045;-57
2022/09/29 02:19:51;;;;;;;8.35;3.33;;;6.60;99.90;;;;;;5074181;28;20056;-56
2022/09/29 02:22:17;;;;;;;26.15;3.53;;;6.60;99.90;;;;;;5073939;28;20037;-57
2022/09/29 02:24:43;;;;;;;3.00;2.70;;;6.50;99.90;;;;;;5074002;28;20040;-56
2022/09/29 02:27:10;;;;;;;3.53;2.13;;;6.50;99.90;;;;;;5074080;28;20033;-56
2022/09/29 02:29:37;;;;;;;2.25;2.05;;;6.40;99.90;;;;;;5074203;28;20067;-57
2022/09/29 02:32:04;;;;;;;4.03;2.70;;;6.50;99.90;;;;;;5073927;28;20530;-57
2022/09/29 02:34:33;;;;;;;5.05;2.85;;;6.50;99.90;;;;;;5073749;28;20040;-57
2022/09/29 02:37:14;;;;;;;;;;;6.40;99.90;;;;;;5074078;28;20494;-57
2022/09/29 02:40:04;;;;;;;6.70;2.28;;;6.50;99.90;;;;;;5072764;28;20002;-57
2022/09/29 02:42:36;;;;;;;4.20;2.17;;;6.30;99.90;;;;;;5073835;28;20044;-55
2022/09/29 02:45:24;;;;;;;4.30;3.10;;;6.30;99.90;;;;;;5073814;28;20083;-56
2022/09/29 02:48:22;;;;;;;4.88;2.50;;;6.30;99.90;;;;;;5073746;28;20111;-55
2022/09/29 02:51:12;;;;;;;3.33;2.47;;;6.50;99.90;;;;;;5073782;28;20037;-56
2022/09/29 02:53:56;;;;;;;22.33;2.30;;;6.40;99.90;;;;;;5073632;28;20387;-56
2022/09/29 02:56:37;;;;;;;14.00;2.50;;;6.40;99.90;;;;;;5073701;28;20098;-56
2022/09/29 02:59:20;;;;;;;37.22;3.55;;;6.40;99.90;;;;;;5073670;28;20036;-56
2022/09/29 03:01:56;;;;;;;8.20;2.78;;;6.20;99.90;;;;;;5073705;28;20119;-56
2022/09/29 03:04:24;;;;;;;6.35;2.80;;;6.30;99.90;;;;;;5073546;28;20047;-56
2022/09/29 03:06:51;;;;;;;6.32;3.25;;;6.30;99.90;;;;;;5072202;28;20413;-56
2022/09/29 03:09:17;;;;;;;6.18;2.78;;;6.20;99.90;;;;;;5073659;28;20041;-56
2022/09/29 03:11:42;;;;;;;5.35;3.10;;;6.00;99.90;;;;;;5073558;28;20047;-56
2022/09/29 03:14:08;;;;;;;6.07;2.78;;;6.10;99.90;;;;;;5073541;28;20040;-56
2022/09/29 03:16:35;;;;;;;10.90;3.25;;;6.10;99.90;;;;;;5073595;28;20375;-56
2022/09/29 03:19:02;;;;;;;22.15;4.15;;;6.10;99.90;;;;;;5074871;28;20051;-56
2022/09/29 03:21:28;;;;;;;9.23;4.03;;;6.00;99.90;;;;;;5077315;28;20051;-56
2022/09/29 03:23:54;;;;;;;6.47;3.85;;;6.00;99.90;;;;;;5077423;28;20089;-56
2022/09/29 03:26:20;;;;;;;11.90;3.25;;;6.00;99.90;;;;;;5077244;28;20111;-56
2022/09/29 03:28:46;;;;;;;24.60;3.20;;;6.00;99.90;;;;;;5077359;28;20044;-56
2022/09/29 03:31:11;;;;;;;18.77;3.85;;;6.00;99.90;;;;;;5077429;28;20039;-56
2022/09/29 03:33:38;;;;;;;30.77;4.32;;;6.00;99.90;;;;;;5077234;28;20079;-56
2022/09/29 03:36:13;;;;;;;14.07;4.05;;;5.80;99.90;;;;;;5076902;28;20490;-56
2022/09/29 03:38:39;;;;;;;4.38;2.90;;;5.80;99.90;;;;;;5077201;28;20498;-56
2022/09/29 03:41:05;;;;;;;6.97;3.10;;;5.90;99.90;;;;;;5077166;28;20076;-56
2022/09/29 03:43:31;;;;;;;11.77;3.80;;;5.90;99.90;;;;;;5076995;28;20044;-55
2022/09/29 03:45:57;;;;;;;7.80;4.15;;;5.90;99.90;;;;;;5076888;28;20037;-55
2022/09/29 03:48:24;;;;;;;9.20;3.75;;;5.90;99.90;;;;;;5076949;28;20036;-57
2022/09/29 03:50:51;;;;;;;9.98;3.75;;;5.90;99.90;;;;;;5076970;28;20364;-56
2022/09/29 03:53:17;;;;;;;7.95;4.40;;;6.00;99.90;;;;;;5076752;28;20499;-56
2022/09/29 03:55:47;;;;;;;11.10;4.18;;;5.90;99.90;;;;;;5076582;28;20060;-56
2022/09/29 03:58:14;;;;;;;7.82;4.18;;;5.80;99.90;;;;;;5076862;28;20040;-55
2022/09/29 04:00:39;;;;;;;4.45;3.97;;;5.80;99.90;;;;;;5076742;28;20033;-57
2022/09/29 04:03:06;;;;;;;5.10;4.40;;;5.80;99.90;;;;;;5076393;28;20482;-56
2022/09/29 04:05:37;;;;;;;5.10;4.65;;;5.80;99.90;;;;;;5076711;28;20049;-57
2022/09/29 04:08:07;;;;;;;4.57;4.18;;;5.80;99.90;;;;;;5076459;28;20578;-56
2022/09/29 04:10:39;;;;;;;4.70;4.15;;;5.90;99.90;;;;;;5076497;28;20029;-56
2022/09/29 04:13:06;;;;;;;5.18;4.68;;;5.80;99.90;;;;;;5076622;28;20455;-56
2022/09/29 04:15:32;;;;;;;7.82;4.68;;;5.90;99.90;;;;;;5076542;28;20072;-55
2022/09/29 04:17:58;;;;;;;4.38;3.97;;;5.80;99.90;;;;;;5076400;28;20107;-57
2022/09/29 04:20:24;;;;;;;5.25;4.75;;;5.90;99.90;;;;;;5076440;28;20090;-55
2022/09/29 04:22:50;;;;;;;5.03;4.43;;;5.80;99.90;;;;;;5076584;28;20045;-56
2022/09/29 04:25:16;;;;;;;4.63;4.22;;;5.80;99.90;;;;;;5076236;28;20029;-56
2022/09/29 04:27:41;;;;;;;5.43;4.93;;;5.80;99.90;;;;;;5075111;28;20475;-55
2022/09/29 04:30:08;;;;;;;5.50;4.82;;;5.80;99.90;;;;;;5075713;28;20036;-56
2022/09/29 04:32:33;;;;;;;5.50;5.00;;;5.80;99.90;;;;;;5076206;28;20048;-56
2022/09/29 04:34:59;;;;;;;6.50;5.32;;;5.90;99.90;;;;;;5076075;28;20403;-56
2022/09/29 04:37:25;;;;;;;5.93;4.97;;;5.80;99.90;;;;;;5076107;28;20115;-56
2022/09/29 04:39:52;;;;;;;5.60;3.95;;;5.90;99.90;;;;;;5076050;28;20055;-56
2022/09/29 04:42:18;;;;;;;6.53;4.90;;;5.90;99.90;;;;;;5075979;28;20407;-56
2022/09/29 04:44:44;;;;;;;4.28;3.88;;;6.00;99.90;;;;;;5075899;28;20043;-56
2022/09/29 04:47:10;;;;;;;5.40;4.20;;;6.00;99.90;;;;;;5075956;28;20037;-57
2022/09/29 04:49:36;;;;;;;5.18;4.40;;;5.90;99.90;;;;;;5075745;28;20068;-56
2022/09/29 04:52:01;;;;;;;8.77;4.95;;;5.80;99.90;;;;;;5075887;28;20059;-57
2022/09/29 04:54:31;;;;;;;5.35;4.50;;;6.00;99.90;;;;;;5075519;28;20510;-56
2022/09/29 04:56:57;;;;;;;5.90;3.97;;;5.90;99.90;;;;;;5075481;28;20102;-56
2022/09/29 04:59:23;;;;;;;7.00;4.20;;;6.00;99.90;;;;;;5075608;28;20036;-57
2022/09/29 05:01:49;;;;;;;4.35;3.95;;;5.80;99.90;;;;;;5075710;28;20041;-57
2022/09/29 05:04:15;;;;;;;7.72;4.03;;;6.00;99.90;;;;;;5075533;28;20032;-57
2022/09/29 05:06:40;;;;;;;6.97;3.60;;;6.00;99.90;;;;;;5075541;28;20372;-57
2022/09/29 05:09:07;;;;;;;3.75;3.45;;;5.90;99.90;;;;;;5075482;28;20489;-58
2022/09/29 05:11:33;;;;;;;7.80;3.72;;;5.90;99.90;;;;;;5075448;28;20547;-58
2022/09/29 05:13:59;;;;;;;9.32;3.88;;;5.80;99.90;;;;;;5075312;28;20040;-57
2022/09/29 05:16:25;;;;;;;9.35;4.60;;;5.80;99.90;;;;;;5075381;28;20045;-58
2022/09/29 05:18:51;;;;;;;10.20;4.50;;;5.80;99.90;;;;;;5075200;28;20498;-57
2022/09/29 05:21:16;;;;;;;4.07;3.67;;;5.80;99.90;;;;;;5074006;28;20044;-58
2022/09/29 05:23:42;;;;;;;10.52;4.40;;;5.80;99.90;;;;;;5075040;28;20043;-57
2022/09/29 05:26:10;;;;;;;5.85;3.90;;;5.80;99.90;;;;;;5073878;28;20041;-57
2022/09/29 05:28:38;;;;;;;4.50;4.10;;;5.80;99.90;;;;;;5075021;28;20037;-57
2022/09/29 05:31:07;;;;;;;10.73;4.93;;;5.70;99.90;;;;;;5074780;28;20094;-57
2022/09/29 05:33:34;;;;;;;5.70;4.43;;;5.80;99.90;;;;;;5074803;28;20055;-56
2022/09/29 05:36:00;;;;;;;4.82;4.43;;;5.80;99.90;;;;;;5074944;28;20036;-57
2022/09/29 05:38:27;;;;;;;4.72;4.22;;;5.90;99.90;;;;;;5074768;28;20036;-56
2022/09/29 05:40:52;;;;;;;4.45;4.05;;;5.80;99.90;;;;;;5074914;28;20044;-57
2022/09/29 05:43:21;;;;;;;8.93;4.65;;;5.70;99.90;;;;;;5073939;28;20364;-56
2022/09/29 05:45:46;;;;;;;4.90;4.40;;;5.80;99.90;;;;;;5074744;28;20055;-57
2022/09/29 05:48:12;;;;;;;13.98;4.95;;;5.80;99.90;;;;;;5074742;28;20033;-57
2022/09/29 05:50:40;;;;;;;11.38;5.22;;;5.70;99.90;;;;;;5074418;28;20438;-57
2022/09/29 05:53:07;;;;;;;5.20;4.65;;;5.60;99.90;;;;;;5074171;28;20036;-57
2022/09/29 05:55:36;;;;;;;17.58;5.70;;;5.70;99.90;;;;;;5074224;28;20551;-57
2022/09/29 05:58:03;;;;;;;19.52;4.68;;;5.70;99.90;;;;;;5074350;28;20096;-58
2022/09/29 06:00:30;;;;;;;9.35;4.20;;;5.70;99.90;;;;;;5074351;28;20036;-57
2022/09/29 06:02:59;;;;;;;7.95;4.93;;;5.80;99.90;;;;;;5074270;28;20612;-58
2022/09/29 06:05:25;;;;;;;6.63;3.75;;;5.80;99.90;;;;;;5074412;28;20064;-57
2022/09/29 06:07:52;;;;;;;21.17;4.97;;;5.80;99.90;;;;;;5073172;28;20045;-58
2022/09/29 06:10:18;;;;;;;7.00;4.35;;;5.80;99.90;;;;;;5074339;28;20063;-57
2022/09/29 06:12:43;;;;;;;5.60;4.50;;;5.80;99.90;;;;;;5074181;28;20040;-57
2022/09/29 06:15:10;;;;;;;6.07;5.38;;;5.70;99.90;;;;;;5074274;28;20457;-57
2022/09/29 06:17:37;;;;;;;12.70;6.63;;;5.80;99.90;;;;;;5074219;28;20036;-56
2022/09/29 06:20:05;;;;;;;8.77;6.82;;;5.90;99.90;;;;;;5074146;28;20044;-56
2022/09/29 06:22:31;;;;;;;7.65;6.75;;;5.90;99.90;;;;;;5073942;28;20052;-59
2022/09/29 06:24:57;;;;;;;9.70;7.38;;;5.90;99.90;;;;;;5073696;28;20475;-58
2022/09/29 06:27:23;;;;;;;9.18;8.13;;;6.00;99.90;;;;;;5073813;28;20051;-58
2022/09/29 06:29:49;;;;;;;10.75;8.55;;;6.00;99.90;;;;;;5072931;28;20086;-56
2022/09/29 06:32:15;;;;;;;8.63;7.50;;;6.00;99.90;;;;;;5074043;28;20036;-57
2022/09/29 06:37:33;;;;;;;8.88;8.02;;;6.00;99.90;;;;;;5073885;28;20475;-57
2022/09/29 06:37:35;;;;;;;8.55;7.75;;;6.10;99.90;;;;;;5073743;28;20051;-58
2022/09/29 06:40:03;;;;;;;11.05;8.68;;;6.10;99.90;;;;;;5073792;28;20482;-57
2022/09/29 06:42:29;;;;;;;9.02;8.07;;;6.10;99.90;;;;;;5073995;28;20394;-56
2022/09/29 06:44:55;;;;;;;9.15;8.20;;;6.20;99.90;;;;;;5074368;28;20036;-57
2022/09/29 06:47:20;;;;;;;10.98;8.52;;;6.40;99.90;;;;;;5073842;28;20047;-57
2022/09/29 06:49:46;;;;;;;11.48;9.32;;;6.40;99.90;;;;;;5073734;28;20512;-57
2022/09/29 06:52:11;;;;;;;8.75;7.95;;;6.40;99.90;;;;;;5073898;28;20355;-57
2022/09/29 06:54:37;;;;;;;8.45;7.65;;;6.60;99.90;;;;;;5073225;28;20056;-58
2022/09/29 06:57:03;;;;;;;9.50;8.60;;;6.60;99.90;;;;;;5073747;28;20079;-56
2022/09/29 06:59:28;;;;;;;10.55;8.75;;;6.70;99.90;;;;;;5073819;28;20399;-57
2022/09/29 07:01:54;;;;;;;9.73;8.73;;;6.80;99.90;;;;;;5073654;28;20053;-56
2022/09/29 07:04:20;;;;;;;10.25;9.25;;;6.80;99.90;;;;;;5073325;28;20429;-57
2022/09/29 07:06:46;;;;;;;9.88;8.88;;;7.00;99.90;;;;;;5073699;28;20047;-57
2022/09/29 07:09:14;;;;;;;10.75;8.65;;;7.20;99.90;;;;;;5073624;28;20111;-57
2022/09/29 07:11:45;;;;;;;11.02;9.80;;;7.40;99.90;;;;;;5071767;28;20053;-57
2022/09/29 07:14:15;;;;;;;10.80;8.38;;;7.80;99.90;;;;;;5073512;28;20044;-56
2022/09/29 07:16:41;;;;;;;9.63;8.63;;;8.10;99.90;;;;;;5073559;28;20522;-57
2022/09/29 07:19:07;;;;;;;9.30;7.57;;;8.30;99.90;;;;;;5073325;28;20483;-57
2022/09/29 07:21:33;;;;;;;8.07;6.97;;;8.70;99.90;;;;;;5073571;28;20041;-57
2022/09/29 07:23:59;;;;;;;8.07;6.72;;;9.10;99.90;;;;;;5072245;28;20558;-57
2022/09/29 07:26:25;;;;;;;8.05;7.25;;;9.50;99.90;;;;;;5073314;28;20372;-57
2022/09/29 07:28:51;;;;;;;10.32;6.85;;;9.90;99.90;;;;;;5073376;28;20037;-57
2022/09/29 07:31:19;;;;;;;6.93;6.22;;;10.20;99.90;;;;;;5073389;28;20036;-57
2022/09/29 07:33:46;;;;;;;7.50;6.70;;;10.60;99.90;;;;;;5073483;28;20386;-57
2022/09/29 07:36:14;;;;;;;9.85;5.90;;;10.80;99.90;;;;;;5073149;28;20403;-57
2022/09/29 07:38:40;;;;;;;8.02;6.05;;;11.20;99.90;;;;;;5073277;28;20032;-57
2022/09/29 07:41:09;;;;;;;7.63;6.25;;;11.50;99.90;;;;;;5072332;28;20387;-57
2022/09/29 07:43:35;;;;;;;7.90;5.95;;;11.80;99.90;;;;;;5072038;28;20045;-56
2022/09/29 07:46:01;;;;;;;6.88;5.63;;;12.10;99.90;;;;;;5073282;28;20058;-56
2022/09/29 07:48:27;;;;;;;7.22;5.90;;;12.40;99.90;;;;;;5073227;28;20471;-57
2022/09/29 07:51:00;;;;;;;7.55;6.03;;;12.90;99.90;;;;;;5073214;28;20075;-56
2022/09/29 07:53:26;;;;;;;5.88;5.25;;;12.90;99.90;;;;;;5072959;28;20048;-57
2022/09/29 07:55:52;;;;;;;6.55;5.35;;;13.20;99.90;;;;;;5073123;28;20048;-56
2022/09/29 07:58:17;;;;;;;6.78;5.05;;;13.60;99.90;;;;;;5073221;28;20063;-57
2022/09/29 08:00:43;;;;;;;7.13;5.60;;;13.90;99.90;;;;;;5073108;28;20535;-56
2022/09/29 08:03:09;;;;;;;7.00;5.70;;;14.10;99.90;;;;;;5073004;28;20495;-56
2022/09/29 08:05:34;;;;;;;9.35;5.28;;;14.30;99.90;;;;;;5073686;28;20036;-57
2022/09/29 08:08:02;;;;;;;5.95;5.38;;;14.60;99.90;;;;;;5076487;28;20119;-57
2022/09/29 08:10:30;;;;;;;5.50;5.00;;;14.80;99.90;;;;;;5076661;28;20139;-57
2022/09/29 08:12:56;;;;;;;6.28;5.55;;;14.90;99.90;;;;;;5076413;28;20039;-57
2022/09/29 08:15:22;;;;;;;6.43;5.82;;;15.20;99.90;;;;;;5076269;28;20048;-57
2022/09/29 08:17:51;;;;;;;7.28;5.78;;;15.40;99.90;;;;;;5076505;28;20113;-57
2022/09/29 08:20:17;;;;;;;6.60;5.90;;;15.60;99.90;;;;;;5076520;28;20078;-56
2022/09/29 08:22:42;;;;;;;7.57;6.53;;;16.00;99.90;;;;;;5076418;28;20085;-55
2022/09/29 08:25:08;;;;;;;7.45;6.65;;;15.90;99.90;;;;;;5075508;28;20538;-56
2022/09/29 08:27:33;;;;;;;8.20;7.18;;;16.20;99.90;;;;;;5075600;28;20048;-58
2022/09/29 08:29:59;;;;;;;8.13;7.32;;;16.30;99.90;;;;;;5076215;28;20047;-58
2022/09/29 08:32:25;;;;;;;9.23;7.13;;;16.50;99.90;;;;;;5076269;28;20058;-56
2022/09/29 08:34:50;;;;;;;9.85;7.70;;;16.60;99.90;;;;;;5076244;28;20045;-56
2022/09/29 08:37:16;;;;;;;10.60;8.40;;;16.80;99.90;;;;;;5075937;28;20457;-57
2022/09/29 08:39:42;;;;;;;9.40;7.65;;;16.60;99.90;;;;;;5076168;28;20077;-56
2022/09/29 08:42:18;;;;;;;9.98;7.85;;;16.80;99.90;;;;;;5076541;28;20461;-56
2022/09/29 08:44:53;;;;;;;9.18;7.53;;;16.80;99.90;;;;;;5075868;28;20048;-57
2022/09/29 08:47:34;;;;;;;8.55;7.65;;;17.00;99.90;;;;;;5076044;28;20087;-56
2022/09/29 08:50:39;;;;;;;11.02;8.00;;;17.30;99.90;;;;;;5074699;28;20043;-57
2022/09/29 08:53:08;;;;;;;10.07;7.63;;;17.50;99.90;;;;;;5033753;28;20228;-57
2022/09/29 08:55:43;;;;;;;11.40;7.65;;;17.60;99.90;;;;;;5016316;28;20458;-57
2022/09/29 08:58:15;;;;;;;8.50;7.25;;;17.80;99.90;;;;;;5016525;28;20088;-57
2022/09/29 09:00:47;;;;;;;8.85;7.85;;;17.70;99.90;;;;;;5033268;28;20052;-55
2022/09/29 09:03:31;;;;;;;9.60;7.45;;;17.80;99.90;;;;;;5033309;28;20049;-56
2022/09/29 09:06:17;;;;;;;8.95;7.72;;;18.00;99.90;;;;;;5033514;28;20042;-56
2022/09/29 09:09:16;;;;;;;8.30;6.82;;;18.00;99.90;;;;;;5033561;28;20088;-56
2022/09/29 09:12:14;;;;;;;7.18;6.47;;;18.00;99.90;;;;;;5033494;28;20045;-55
2022/09/29 09:15:18;;;;;;;9.05;6.70;;;18.10;99.90;;;;;;5033161;28;20539;-55
2022/09/29 09:18:23;;;;;;;8.38;6.22;;;18.00;99.90;;;;;;5032579;28;20393;-55
2022/09/29 09:20:58;;;;;;;5.68;5.07;;;17.90;99.90;;;;;;4955045;29;20402;-55
2022/09/29 09:23:46;;;;;;;6.03;5.43;;;17.80;99.90;;;;;;4954973;29;20063;-56
2022/09/29 09:26:13;;;;;;;5.78;4.60;;;17.70;99.90;;;;;;4920681;29;20052;-57
2022/09/29 09:28:49;;;;;;;5.53;5.00;;;17.30;99.90;;;;;;4935633;28;20546;-55
2022/09/29 09:31:29;;;;;;;7.70;4.97;;;16.90;99.90;;;;;;4993570;28;20481;-56
2022/09/29 09:34:25;;;;;;;3.88;3.28;;;16.80;99.90;;;;;;4993676;28;20098;-56
2022/09/29 09:37:13;;;;;;;4.30;3.00;;;16.60;99.90;;;;;;4954554;28;20161;-56
2022/09/29 09:39:54;;;;;;;3.50;3.20;;;16.40;99.90;;;;;;4954637;29;20059;-54
2022/09/29 09:42:25;;;;;;;3.60;3.22;;;16.20;99.90;;;;;;4954787;29;20058;-56
2022/09/29 09:44:56;;;;;;;4.85;3.78;;;16.00;99.90;;;;;;4954402;29;20134;-56
2022/09/29 09:47:30;;;;;;;11.57;3.67;;;15.90;99.90;;;;;;4955002;29;20047;-55
2022/09/29 09:50:19;;;;;;;4.00;2.97;;;15.70;99.90;;;;;;4954639;29;20071;-56
2022/09/29 09:52:50;;;;;;;4.33;2.67;;;15.60;99.90;;;;;;4954675;29;20043;-56
2022/09/29 09:55:19;;;;;;;3.30;2.60;;;15.60;99.90;;;;;;4954241;28;20054;-55
2022/09/29 09:58:27;;;;;;;7.03;3.33;;;15.50;99.90;;;;;;4980108;28;20053;-56
2022/09/29 10:01:02;;;;;;;5.65;3.70;;;15.50;99.90;;;;;;4954284;29;20195;-56
2022/09/29 10:03:29;;;;;;;4.18;3.08;;;15.60;99.90;;;;;;4954264;29;20062;-55
2022/09/29 10:05:55;;;;;;;4.82;3.45;;;15.60;99.90;;;;;;4954281;29;20051;-56
2022/09/29 10:08:29;;;;;;;5.05;3.20;;;15.50;99.90;;;;;;4954353;29;20054;-55
2022/09/29 10:10:56;;;;;;;4.03;2.75;;;15.50;99.90;;;;;;4954032;29;20133;-55
2022/09/29 10:13:29;;;;;;;4.10;2.00;;;15.40;99.90;;;;;;4959337;28;20529;-55
2022/09/29 10:16:12;;;;;;;3.30;2.28;;;15.50;99.90;;;;;;4973322;28;20043;-55
2022/09/29 10:18:55;;;;;;;3.67;2.05;;;15.40;99.90;;;;;;4973232;28;20050;-55
2022/09/29 10:21:43;;;;;;;4.63;2.42;;;15.30;99.90;;;;;;4973411;28;20043;-56
2022/09/29 10:24:29;;;;;;;3.47;1.88;;;15.30;99.90;;;;;;4973165;28;20062;-55
2022/09/29 10:26:58;;;;;;;3.72;2.85;;;15.30;99.90;;;;;;4973684;28;20123;-55
2022/09/29 10:29:28;;;;;;;;;;;15.20;99.90;;;;;;4973121;28;20583;-57
2022/09/29 10:32:00;;;;;;;2.13;1.90;;;15.20;99.90;;;;;;4973113;28;19941;-56
2022/09/29 10:34:27;;;;;;;3.03;2.05;;;15.10;99.90;;;;;;4972967;28;20058;-56
2022/09/29 10:36:56;;;;;;;3.63;2.17;;;15.10;99.90;;;;;;4978121;28;20078;-55
2022/09/29 10:39:42;;;;;;;2.38;2.17;;;15.10;99.90;;;;;;5053935;28;20184;-56
2022/09/29 10:42:30;;;;;;;2.50;1.85;;;15.00;99.90;;;;;;5053813;28;20147;-56
2022/09/29 10:45:19;;;;;;;2.40;1.98;;;15.00;99.90;;;;;;5053783;28;20131;-55
2022/09/29 10:47:48;;;;;;;2.03;1.83;;;15.00;99.90;;;;;;5053774;28;20041;-56
2022/09/29 10:50:20;;;;;;;2.95;2.10;;;15.00;99.90;;;;;;5053643;28;20068;-56
2022/09/29 10:52:53;;;;;;;3.70;1.70;;;15.00;99.90;;;;;;5053837;28;20037;-56
2022/09/29 10:55:22;;;;;;;3.28;1.85;;;15.10;99.90;;;;;;5053912;28;20397;-56
2022/09/29 10:57:49;;;;;;;2.75;1.90;;;15.10;99.90;;;;;;5053716;28;20041;-55
2022/09/29 11:00:47;;;;;;;2.35;1.90;;;15.20;99.90;;;;;;5053655;28;20049;-57
2022/09/29 11:03:25;;;;;;;3.95;1.65;;;15.30;99.90;;;;;;5031539;28;20050;-56
2022/09/29 11:05:57;;;;;;;1.67;1.58;;;15.40;99.90;;;;;;5031287;28;20610;-55
2022/09/29 11:08:26;;;;;;;2.10;1.63;;;15.70;99.90;;;;;;5032056;28;20120;-53
2022/09/29 11:11:18;;;;;;;;;;;16.00;99.90;;;;;;5031965;28;20045;-53
2022/09/29 11:13:45;;;;;;;2.75;1.75;;;16.40;99.90;;;;;;5031309;28;19917;-55
2022/09/29 11:16:26;;;;;;;1.80;1.33;;;16.60;99.90;;;;;;5015305;28;20567;-56
2022/09/29 11:18:56;;;;;;;3.42;1.42;;;16.60;99.90;;;;;;5031401;28;20058;-56
2022/09/29 11:21:53;;;;;;;1.67;1.50;;;16.80;99.90;;;;;;5031405;28;20120;-56
2022/09/29 11:25:02;;;;;;;1.92;1.77;;;17.20;99.90;;;;;;5031186;28;20038;-56
2022/09/29 11:28:12;;;;;;;3.30;1.20;;;17.30;99.90;;;;;;4953332;29;20082;-56
2022/09/29 11:31:08;;;;;;;2.67;1.20;;;17.60;99.90;;;;;;4950414;28;20093;-56
2022/09/29 11:33:39;;;;;;;2.28;0.90;;;17.40;99.90;;;;;;4953260;29;20130;-56
2022/09/29 11:36:28;;;;;;;1.45;0.70;;;17.80;99.90;;;;;;4953118;29;20053;-56
2022/09/29 11:39:13;;;;;;;3.80;1.50;;;17.70;99.90;;;;;;4966922;28;20046;-56
2022/09/29 11:41:50;;;;;;;2.65;1.80;;;17.50;99.90;;;;;;4995668;28;20501;-56
2022/09/29 11:44:36;;;;;;;2.20;1.25;;;17.30;99.90;;;;;;4995491;28;20050;-56
2022/09/29 11:47:28;;;;;;;2.85;1.45;;;17.20;99.90;;;;;;4995730;28;20042;-56
2022/09/29 11:50:21;;;;;;;2.17;1.33;;;17.10;99.90;;;;;;4937581;29;20055;-56
2022/09/29 11:52:58;;;;;;;1.65;1.17;;;17.20;99.90;;;;;;4899584;29;20067;-55
2022/09/29 11:55:42;;;;;;;1.50;1.05;;;17.50;99.90;;;;;;4899299;29;20056;-56
2022/09/29 11:58:37;;;;;;;1.42;0.90;;;17.60;99.90;;;;;;4899625;29;20053;-56
2022/09/29 12:01:20;;;;;;;1.25;1.08;;;17.70;99.90;;;;;;4899582;29;20048;-55
2022/09/29 12:04:10;;;;;;;1.63;1.00;;;17.90;99.90;;;;;;4932525;29;20051;-56
2022/09/29 12:06:51;;;;;;;0.80;0.70;;;18.00;99.90;;;;;;4937124;29;20176;-56
2022/09/29 12:09:35;;;;;;;1.17;0.70;;;18.20;99.90;;;;;;4937294;29;20518;-56
2022/09/29 12:12:09;;;;;;;0.75;0.40;;;18.40;99.90;;;;;;4937359;29;20039;-55
2022/09/29 12:14:56;;;;;;;1.38;0.60;;;18.40;99.90;;;;;;4937687;29;20065;-56
2022/09/29 12:17:26;;;;;;;2.58;0.60;;;18.50;99.90;;;;;;4937050;29;20130;-56
2022/09/29 12:20:01;;;;;;;0.95;0.60;;;18.30;99.90;;;;;;4937159;29;20127;-53
2022/09/29 12:22:28;;;;;;;1.20;0.70;;;18.30;99.90;;;;;;4937096;29;20044;-55
2022/09/29 12:24:58;;;;;;;2.10;0.60;;;18.10;99.90;;;;;;4936944;29;20542;-55
2022/09/29 12:27:38;;;;;;;2.15;0.80;;;17.90;99.90;;;;;;4993484;28;20054;-55
2022/09/29 12:30:21;;;;;;;1.63;1.00;;;17.60;99.90;;;;;;5029661;28;20463;-56
2022/09/29 12:32:56;;;;;;;0.90;0.73;;;17.30;99.90;;;;;;5056285;28;20364;-56
2022/09/29 12:35:31;;;;;;;2.60;0.80;;;17.00;99.90;;;;;;5056239;28;20487;-55
2022/09/29 12:38:24;;;;;;;2.00;1.00;;;16.80;99.90;;;;;;5056191;28;20098;-56
2022/09/29 12:41:14;;;;;;;1.58;0.90;;;16.50;99.90;;;;;;5033953;28;20510;-55
2022/09/29 12:44:05;;;;;;;1.02;0.88;;;16.40;99.90;;;;;;5033952;28;20041;-55
2022/09/29 12:46:45;;;;;;;;;;;16.30;99.90;;;;;;5034408;28;20062;-55
2022/09/29 12:49:38;;;;;;;0.90;0.80;;;16.20;99.90;;;;;;5033897;28;20012;-56
2022/09/29 12:52:19;;;;;;;1.08;0.70;;;16.10;99.90;;;;;;4955645;28;20058;-56
2022/09/29 12:54:54;;;;;;;1.27;0.98;;;16.00;99.90;;;;;;4955552;29;20255;-56
2022/09/29 12:57:37;;;;;;;2.40;1.00;;;15.90;99.90;;;;;;4955563;29;20051;-56
2022/09/29 13:00:17;;;;;;;0.60;0.50;;;15.90;99.90;;;;;;4955728;29;20043;-56
2022/09/29 13:03:25;;;;;;;0.98;0.80;;;15.80;99.90;;;;;;4955418;29;20159;-55
2022/09/29 13:06:15;;;;;;;1.10;0.73;;;15.60;99.90;;;;;;4898343;29;20492;-56
2022/09/29 13:09:10;;;;;;;;;;;15.60;99.90;;;;;;4898621;29;20127;-56
2022/09/29 13:11:51;;;;;;;1.92;1.17;;;15.50;99.90;;;;;;4898233;29;19948;-57
2022/09/29 13:14:33;;;;;;;1.88;1.02;;;15.40;99.90;;;;;;4898234;29;20045;-56
2022/09/29 13:17:08;;;;;;;1.83;0.88;;;15.40;99.90;;;;;;4901199;29;20484;-56
2022/09/29 13:19:53;;;;;;;2.85;0.60;;;15.40;99.90;;;;;;4901448;29;20112;-54
2022/09/29 13:22:34;;;;;;;1.23;0.60;;;15.40;99.90;;;;;;4916903;29;20052;-57
2022/09/29 13:25:30;;;;;;;3.30;0.73;;;15.40;99.90;;;;;;4916950;29;20104;-56